sensor_id;sensor_type;location;lat;lon;timestamp;P1;durP1;ratioP1;P2;durP2;ratioP2
82835;SDS011;72587;50.746;8.246;2024-03-06T00:00:01;36.43;;;16.33;;
82835;SDS011;72587;50.746;8.246;2024-03-06T00:02:29;35.00;;;15.93;;
82835;SDS011;72587;50.746;8.246;2024-03-06T00:04:54;43.30;;;21.40;;
82835;SDS011;72587;50.746;8.246;2024-03-06T00:07:20;38.60;;;18.03;;
82835;SDS011;72587;50.746;8.246;2024-03-06T00:09:45;33.17;;;15.90;;
82835;SDS011;72587;50.746;8.246;2024-03-06T00:12:11;43.50;;;17.83;;
82835;SDS011;72587;50.746;8.246;2024-03-06T00:14:37;41.57;;;18.20;;
82835;SDS011;72587;50.746;8.246;2024-03-06T00:17:02;35.13;;;16.50;;
82835;SDS011;72587;50.746;8.246;2024-03-06T00:19:32;36.00;;;15.77;;
82835;SDS011;72587;50.746;8.246;2024-03-06T00:21:57;30.77;;;15.40;;
82835;SDS011;72587;50.746;8.246;2024-03-06T00:24:26;34.03;;;16.00;;
82835;SDS011;72587;50.746;8.246;2024-03-06T00:26:51;36.37;;;16.07;;
82835;SDS011;72587;50.746;8.246;2024-03-06T00:29:17;37.73;;;16.43;;
82835;SDS011;72587;50.746;8.246;2024-03-06T00:31:43;36.53;;;17.17;;
82835;SDS011;72587;50.746;8.246;2024-03-06T00:34:10;35.77;;;16.23;;
82835;SDS011;72587;50.746;8.246;2024-03-06T00:36:39;41.87;;;18.60;;
82835;SDS011;72587;50.746;8.246;2024-03-06T00:39:04;42.97;;;18.47;;
82835;SDS011;72587;50.746;8.246;2024-03-06T00:41:30;38.63;;;17.60;;
82835;SDS011;72587;50.746;8.246;2024-03-06T00:43:56;40.10;;;18.53;;
82835;SDS011;72587;50.746;8.246;2024-03-06T00:46:22;38.23;;;17.73;;
82835;SDS011;72587;50.746;8.246;2024-03-06T00:48:48;41.07;;;18.20;;
82835;SDS011;72587;50.746;8.246;2024-03-06T00:51:13;40.13;;;18.07;;
82835;SDS011;72587;50.746;8.246;2024-03-06T00:53:39;37.97;;;18.23;;
82835;SDS011;72587;50.746;8.246;2024-03-06T00:56:05;39.07;;;17.63;;
82835;SDS011;72587;50.746;8.246;2024-03-06T00:58:31;42.13;;;18.47;;
82835;SDS011;72587;50.746;8.246;2024-03-06T01:00:57;38.17;;;17.43;;
82835;SDS011;72587;50.746;8.246;2024-03-06T01:03:23;40.20;;;17.87;;
82835;SDS011;72587;50.746;8.246;2024-03-06T01:05:49;43.47;;;18.93;;
82835;SDS011;72587;50.746;8.246;2024-03-06T01:08:17;41.43;;;18.83;;
82835;SDS011;72587;50.746;8.246;2024-03-06T01:10:43;38.13;;;17.17;;
82835;SDS011;72587;50.746;8.246;2024-03-06T01:13:08;39.17;;;17.17;;
82835;SDS011;72587;50.746;8.246;2024-03-06T01:15:35;43.47;;;18.40;;
82835;SDS011;72587;50.746;8.246;2024-03-06T01:18:02;37.60;;;16.87;;
82835;SDS011;72587;50.746;8.246;2024-03-06T01:20:28;40.67;;;18.20;;
82835;SDS011;72587;50.746;8.246;2024-03-06T01:22:54;39.93;;;17.77;;
82835;SDS011;72587;50.746;8.246;2024-03-06T01:25:19;39.47;;;17.63;;
82835;SDS011;72587;50.746;8.246;2024-03-06T01:27:47;45.50;;;17.83;;
82835;SDS011;72587;50.746;8.246;2024-03-06T01:30:13;39.73;;;17.53;;
82835;SDS011;72587;50.746;8.246;2024-03-06T01:32:39;37.93;;;17.30;;
82835;SDS011;72587;50.746;8.246;2024-03-06T01:35:05;33.80;;;15.50;;
82835;SDS011;72587;50.746;8.246;2024-03-06T01:37:31;40.53;;;17.97;;
82835;SDS011;72587;50.746;8.246;2024-03-06T01:39:57;39.43;;;17.40;;
82835;SDS011;72587;50.746;8.246;2024-03-06T01:42:22;36.80;;;16.07;;
82835;SDS011;72587;50.746;8.246;2024-03-06T01:44:48;35.00;;;15.93;;
82835;SDS011;72587;50.746;8.246;2024-03-06T01:47:14;35.13;;;15.70;;
82835;SDS011;72587;50.746;8.246;2024-03-06T01:49:41;36.03;;;17.00;;
82835;SDS011;72587;50.746;8.246;2024-03-06T01:52:07;42.53;;;17.73;;
82835;SDS011;72587;50.746;8.246;2024-03-06T01:54:35;47.07;;;17.77;;
82835;SDS011;72587;50.746;8.246;2024-03-06T01:57:01;38.33;;;17.40;;
82835;SDS011;72587;50.746;8.246;2024-03-06T01:59:28;39.80;;;17.60;;
82835;SDS011;72587;50.746;8.246;2024-03-06T02:01:54;35.13;;;15.50;;
82835;SDS011;72587;50.746;8.246;2024-03-06T02:04:20;36.63;;;16.60;;
82835;SDS011;72587;50.746;8.246;2024-03-06T02:06:46;38.73;;;17.13;;
82835;SDS011;72587;50.746;8.246;2024-03-06T02:09:12;45.20;;;17.27;;
82835;SDS011;72587;50.746;8.246;2024-03-06T02:11:39;40.77;;;17.47;;
82835;SDS011;72587;50.746;8.246;2024-03-06T02:14:05;37.27;;;16.67;;
82835;SDS011;72587;50.746;8.246;2024-03-06T02:16:34;41.70;;;18.07;;
82835;SDS011;72587;50.746;8.246;2024-03-06T02:19:06;39.67;;;17.60;;
82835;SDS011;72587;50.746;8.246;2024-03-06T02:21:33;42.67;;;19.40;;
82835;SDS011;72587;50.746;8.246;2024-03-06T02:23:59;47.20;;;19.63;;
82835;SDS011;72587;50.746;8.246;2024-03-06T02:26:25;39.20;;;17.33;;
82835;SDS011;72587;50.746;8.246;2024-03-06T02:28:51;41.10;;;17.27;;
82835;SDS011;72587;50.746;8.246;2024-03-06T02:31:18;41.37;;;18.67;;
82835;SDS011;72587;50.746;8.246;2024-03-06T02:33:45;47.70;;;18.50;;
82835;SDS011;72587;50.746;8.246;2024-03-06T02:36:13;38.23;;;17.73;;
82835;SDS011;72587;50.746;8.246;2024-03-06T02:38:39;38.23;;;17.43;;
82835;SDS011;72587;50.746;8.246;2024-03-06T02:41:05;36.37;;;17.03;;
82835;SDS011;72587;50.746;8.246;2024-03-06T02:43:32;41.67;;;17.57;;
82835;SDS011;72587;50.746;8.246;2024-03-06T02:45:58;36.53;;;16.63;;
82835;SDS011;72587;50.746;8.246;2024-03-06T02:48:23;38.17;;;17.07;;
82835;SDS011;72587;50.746;8.246;2024-03-06T02:50:49;36.07;;;16.23;;
82835;SDS011;72587;50.746;8.246;2024-03-06T02:53:15;37.97;;;15.87;;
82835;SDS011;72587;50.746;8.246;2024-03-06T02:55:40;37.47;;;16.27;;
82835;SDS011;72587;50.746;8.246;2024-03-06T02:58:06;36.20;;;16.23;;
82835;SDS011;72587;50.746;8.246;2024-03-06T03:00:32;36.23;;;16.20;;
82835;SDS011;72587;50.746;8.246;2024-03-06T03:02:57;39.27;;;15.77;;
82835;SDS011;72587;50.746;8.246;2024-03-06T03:05:23;34.87;;;16.27;;
82835;SDS011;72587;50.746;8.246;2024-03-06T03:07:49;36.30;;;16.87;;
82835;SDS011;72587;50.746;8.246;2024-03-06T03:10:15;36.70;;;16.00;;
82835;SDS011;72587;50.746;8.246;2024-03-06T03:12:41;34.87;;;15.83;;
82835;SDS011;72587;50.746;8.246;2024-03-06T03:15:07;41.47;;;15.57;;
82835;SDS011;72587;50.746;8.246;2024-03-06T03:17:33;40.47;;;17.03;;
82835;SDS011;72587;50.746;8.246;2024-03-06T03:19:59;32.17;;;14.93;;
82835;SDS011;72587;50.746;8.246;2024-03-06T03:22:25;37.57;;;14.87;;
82835;SDS011;72587;50.746;8.246;2024-03-06T03:24:50;36.27;;;14.37;;
82835;SDS011;72587;50.746;8.246;2024-03-06T03:27:16;35.17;;;14.93;;
82835;SDS011;72587;50.746;8.246;2024-03-06T03:29:41;32.10;;;14.27;;
82835;SDS011;72587;50.746;8.246;2024-03-06T03:32:07;40.20;;;15.97;;
82835;SDS011;72587;50.746;8.246;2024-03-06T03:34:36;30.63;;;14.67;;
82835;SDS011;72587;50.746;8.246;2024-03-06T03:37:01;38.90;;;16.27;;
82835;SDS011;72587;50.746;8.246;2024-03-06T03:39:27;38.30;;;14.97;;
82835;SDS011;72587;50.746;8.246;2024-03-06T03:41:53;33.03;;;14.67;;
82835;SDS011;72587;50.746;8.246;2024-03-06T03:44:18;33.40;;;15.20;;
82835;SDS011;72587;50.746;8.246;2024-03-06T03:46:44;35.93;;;14.70;;
82835;SDS011;72587;50.746;8.246;2024-03-06T03:49:10;42.23;;;14.97;;
82835;SDS011;72587;50.746;8.246;2024-03-06T03:51:39;30.30;;;14.10;;
82835;SDS011;72587;50.746;8.246;2024-03-06T03:54:05;34.87;;;14.87;;
82835;SDS011;72587;50.746;8.246;2024-03-06T03:56:31;35.83;;;14.60;;
82835;SDS011;72587;50.746;8.246;2024-03-06T03:58:57;34.23;;;13.97;;
82835;SDS011;72587;50.746;8.246;2024-03-06T04:01:26;36.53;;;14.93;;
82835;SDS011;72587;50.746;8.246;2024-03-06T04:03:52;32.90;;;14.43;;
82835;SDS011;72587;50.746;8.246;2024-03-06T04:06:17;28.67;;;12.70;;
82835;SDS011;72587;50.746;8.246;2024-03-06T04:08:45;30.60;;;14.03;;
82835;SDS011;72587;50.746;8.246;2024-03-06T04:11:11;30.57;;;13.80;;
82835;SDS011;72587;50.746;8.246;2024-03-06T04:13:37;32.00;;;14.07;;
82835;SDS011;72587;50.746;8.246;2024-03-06T04:16:03;35.20;;;14.17;;
82835;SDS011;72587;50.746;8.246;2024-03-06T04:18:33;28.03;;;13.10;;
82835;SDS011;72587;50.746;8.246;2024-03-06T04:21:01;34.40;;;13.47;;
82835;SDS011;72587;50.746;8.246;2024-03-06T04:23:29;29.93;;;13.00;;
82835;SDS011;72587;50.746;8.246;2024-03-06T04:25:54;34.10;;;14.50;;
82835;SDS011;72587;50.746;8.246;2024-03-06T04:28:20;30.90;;;13.07;;
82835;SDS011;72587;50.746;8.246;2024-03-06T04:30:46;34.13;;;13.90;;
82835;SDS011;72587;50.746;8.246;2024-03-06T04:33:12;30.30;;;13.23;;
82835;SDS011;72587;50.746;8.246;2024-03-06T04:35:39;26.90;;;11.90;;
82835;SDS011;72587;50.746;8.246;2024-03-06T04:38:05;32.43;;;13.00;;
82835;SDS011;72587;50.746;8.246;2024-03-06T04:40:31;29.70;;;12.17;;
82835;SDS011;72587;50.746;8.246;2024-03-06T04:42:57;31.93;;;12.83;;
82835;SDS011;72587;50.746;8.246;2024-03-06T04:45:22;29.53;;;12.77;;
82835;SDS011;72587;50.746;8.246;2024-03-06T04:47:48;28.00;;;12.27;;
82835;SDS011;72587;50.746;8.246;2024-03-06T04:50:14;26.57;;;12.23;;
82835;SDS011;72587;50.746;8.246;2024-03-06T04:52:40;24.20;;;11.07;;
82835;SDS011;72587;50.746;8.246;2024-03-06T04:55:06;27.97;;;11.80;;
82835;SDS011;72587;50.746;8.246;2024-03-06T04:57:35;28.67;;;12.10;;
82835;SDS011;72587;50.746;8.246;2024-03-06T05:00:01;26.80;;;12.00;;
82835;SDS011;72587;50.746;8.246;2024-03-06T05:02:36;28.87;;;11.97;;
82835;SDS011;72587;50.746;8.246;2024-03-06T05:05:03;26.87;;;11.93;;
82835;SDS011;72587;50.746;8.246;2024-03-06T05:07:29;32.57;;;13.17;;
82835;SDS011;72587;50.746;8.246;2024-03-06T05:09:55;27.30;;;12.57;;
82835;SDS011;72587;50.746;8.246;2024-03-06T05:12:27;25.90;;;11.97;;
82835;SDS011;72587;50.746;8.246;2024-03-06T05:14:53;32.47;;;13.70;;
82835;SDS011;72587;50.746;8.246;2024-03-06T05:17:22;31.38;;;15.15;;
82835;SDS011;72587;50.746;8.246;2024-03-06T05:19:48;32.97;;;13.27;;
82835;SDS011;72587;50.746;8.246;2024-03-06T05:22:14;30.33;;;13.33;;
82835;SDS011;72587;50.746;8.246;2024-03-06T05:24:41;35.27;;;12.73;;
82835;SDS011;72587;50.746;8.246;2024-03-06T05:27:07;26.30;;;11.67;;
82835;SDS011;72587;50.746;8.246;2024-03-06T05:29:34;29.07;;;11.90;;
82835;SDS011;72587;50.746;8.246;2024-03-06T05:32:01;28.63;;;11.83;;
82835;SDS011;72587;50.746;8.246;2024-03-06T05:34:28;29.97;;;13.27;;
82835;SDS011;72587;50.746;8.246;2024-03-06T05:36:54;32.27;;;13.17;;
82835;SDS011;72587;50.746;8.246;2024-03-06T05:39:20;34.97;;;13.23;;
82835;SDS011;72587;50.746;8.246;2024-03-06T05:41:45;39.77;;;13.73;;
82835;SDS011;72587;50.746;8.246;2024-03-06T05:44:11;37.77;;;15.07;;
82835;SDS011;72587;50.746;8.246;2024-03-06T05:46:37;39.10;;;14.80;;
82835;SDS011;72587;50.746;8.246;2024-03-06T05:49:02;35.30;;;13.70;;
82835;SDS011;72587;50.746;8.246;2024-03-06T05:51:29;33.87;;;13.27;;
82835;SDS011;72587;50.746;8.246;2024-03-06T05:53:55;40.57;;;14.57;;
82835;SDS011;72587;50.746;8.246;2024-03-06T05:56:21;48.50;;;15.73;;
82835;SDS011;72587;50.746;8.246;2024-03-06T05:58:46;45.27;;;16.23;;
82835;SDS011;72587;50.746;8.246;2024-03-06T06:01:12;45.83;;;16.50;;
82835;SDS011;72587;50.746;8.246;2024-03-06T06:03:40;47.47;;;16.53;;
82835;SDS011;72587;50.746;8.246;2024-03-06T06:06:06;39.33;;;16.00;;
82835;SDS011;72587;50.746;8.246;2024-03-06T06:08:33;44.47;;;16.53;;
82835;SDS011;72587;50.746;8.246;2024-03-06T06:10:59;52.77;;;17.57;;
82835;SDS011;72587;50.746;8.246;2024-03-06T06:13:27;47.53;;;16.73;;
82835;SDS011;72587;50.746;8.246;2024-03-06T06:15:53;61.07;;;15.10;;
82835;SDS011;72587;50.746;8.246;2024-03-06T06:18:19;52.57;;;14.70;;
82835;SDS011;72587;50.746;8.246;2024-03-06T06:20:45;47.33;;;13.97;;
82835;SDS011;72587;50.746;8.246;2024-03-06T06:23:11;35.37;;;13.80;;
82835;SDS011;72587;50.746;8.246;2024-03-06T06:25:36;33.03;;;13.40;;
82835;SDS011;72587;50.746;8.246;2024-03-06T06:28:02;38.43;;;13.43;;
82835;SDS011;72587;50.746;8.246;2024-03-06T06:30:28;38.57;;;13.20;;
82835;SDS011;72587;50.746;8.246;2024-03-06T06:32:53;32.20;;;12.87;;
82835;SDS011;72587;50.746;8.246;2024-03-06T06:35:19;54.43;;;14.80;;
82835;SDS011;72587;50.746;8.246;2024-03-06T06:37:44;49.10;;;13.67;;
82835;SDS011;72587;50.746;8.246;2024-03-06T06:40:11;49.83;;;19.85;;
82835;SDS011;72587;50.746;8.246;2024-03-06T06:42:38;33.97;;;14.70;;
82835;SDS011;72587;50.746;8.246;2024-03-06T06:45:10;45.00;;;13.97;;
82835;SDS011;72587;50.746;8.246;2024-03-06T06:47:35;36.00;;;12.50;;
82835;SDS011;72587;50.746;8.246;2024-03-06T06:50:01;49.93;;;12.50;;
82835;SDS011;72587;50.746;8.246;2024-03-06T06:52:30;76.90;;;13.63;;
82835;SDS011;72587;50.746;8.246;2024-03-06T06:54:58;36.47;;;12.00;;
82835;SDS011;72587;50.746;8.246;2024-03-06T06:57:24;28.63;;;12.00;;
82835;SDS011;72587;50.746;8.246;2024-03-06T06:59:49;52.40;;;11.87;;
82835;SDS011;72587;50.746;8.246;2024-03-06T07:02:15;61.57;;;14.07;;
82835;SDS011;72587;50.746;8.246;2024-03-06T07:04:40;33.57;;;12.67;;
82835;SDS011;72587;50.746;8.246;2024-03-06T07:07:06;69.77;;;13.23;;
82835;SDS011;72587;50.746;8.246;2024-03-06T07:09:31;37.13;;;12.77;;
82835;SDS011;72587;50.746;8.246;2024-03-06T07:11:57;37.67;;;12.83;;
82835;SDS011;72587;50.746;8.246;2024-03-06T07:14:23;40.67;;;12.90;;
82835;SDS011;72587;50.746;8.246;2024-03-06T07:16:48;51.33;;;13.23;;
82835;SDS011;72587;50.746;8.246;2024-03-06T07:19:14;45.37;;;13.10;;
82835;SDS011;72587;50.746;8.246;2024-03-06T07:21:39;46.23;;;13.20;;
82835;SDS011;72587;50.746;8.246;2024-03-06T07:24:05;35.77;;;15.27;;
82835;SDS011;72587;50.746;8.246;2024-03-06T07:26:32;43.60;;;14.30;;
82835;SDS011;72587;50.746;8.246;2024-03-06T07:28:58;31.03;;;13.47;;
82835;SDS011;72587;50.746;8.246;2024-03-06T07:31:23;36.50;;;13.97;;
82835;SDS011;72587;50.746;8.246;2024-03-06T07:33:49;34.13;;;13.43;;
82835;SDS011;72587;50.746;8.246;2024-03-06T07:36:15;34.00;;;13.03;;
82835;SDS011;72587;50.746;8.246;2024-03-06T07:38:41;36.80;;;14.77;;
82835;SDS011;72587;50.746;8.246;2024-03-06T07:41:07;41.53;;;17.80;;
82835;SDS011;72587;50.746;8.246;2024-03-06T07:43:33;52.50;;;13.50;;
82835;SDS011;72587;50.746;8.246;2024-03-06T07:45:58;59.90;;;16.90;;
82835;SDS011;72587;50.746;8.246;2024-03-06T07:48:24;33.33;;;13.43;;
82835;SDS011;72587;50.746;8.246;2024-03-06T07:50:50;74.00;;;14.70;;
82835;SDS011;72587;50.746;8.246;2024-03-06T07:53:16;54.67;;;13.50;;
82835;SDS011;72587;50.746;8.246;2024-03-06T07:55:41;35.47;;;13.00;;
82835;SDS011;72587;50.746;8.246;2024-03-06T07:58:07;36.57;;;13.90;;
82835;SDS011;72587;50.746;8.246;2024-03-06T08:00:35;38.13;;;14.10;;
82835;SDS011;72587;50.746;8.246;2024-03-06T08:03:01;35.13;;;13.87;;
82835;SDS011;72587;50.746;8.246;2024-03-06T08:05:30;50.13;;;14.10;;
82835;SDS011;72587;50.746;8.246;2024-03-06T08:07:58;31.03;;;13.13;;
82835;SDS011;72587;50.746;8.246;2024-03-06T08:10:24;27.57;;;12.30;;
82835;SDS011;72587;50.746;8.246;2024-03-06T08:12:49;30.00;;;12.73;;
82835;SDS011;72587;50.746;8.246;2024-03-06T08:15:15;34.67;;;15.55;;
82835;SDS011;72587;50.746;8.246;2024-03-06T08:17:41;28.93;;;12.23;;
82835;SDS011;72587;50.746;8.246;2024-03-06T08:20:08;30.10;;;13.00;;
82835;SDS011;72587;50.746;8.246;2024-03-06T08:22:35;29.37;;;12.33;;
82835;SDS011;72587;50.746;8.246;2024-03-06T08:25:08;32.67;;;12.77;;
82835;SDS011;72587;50.746;8.246;2024-03-06T08:27:34;29.47;;;14.53;;
82835;SDS011;72587;50.746;8.246;2024-03-06T08:30:05;33.20;;;13.87;;
82835;SDS011;72587;50.746;8.246;2024-03-06T08:32:31;53.50;;;13.97;;
82835;SDS011;72587;50.746;8.246;2024-03-06T08:35:00;42.90;;;16.80;;
82835;SDS011;72587;50.746;8.246;2024-03-06T08:37:36;36.67;;;16.53;;
82835;SDS011;72587;50.746;8.246;2024-03-06T08:40:02;29.80;;;13.73;;
82835;SDS011;72587;50.746;8.246;2024-03-06T08:42:28;29.90;;;14.07;;
82835;SDS011;72587;50.746;8.246;2024-03-06T08:44:54;30.00;;;13.37;;
82835;SDS011;72587;50.746;8.246;2024-03-06T08:47:19;32.90;;;12.97;;
82835;SDS011;72587;50.746;8.246;2024-03-06T08:49:45;26.20;;;12.27;;
82835;SDS011;72587;50.746;8.246;2024-03-06T08:52:11;29.87;;;13.13;;
82835;SDS011;72587;50.746;8.246;2024-03-06T08:54:36;28.63;;;13.03;;
82835;SDS011;72587;50.746;8.246;2024-03-06T08:57:05;29.17;;;13.87;;
82835;SDS011;72587;50.746;8.246;2024-03-06T08:59:31;41.43;;;17.90;;
82835;SDS011;72587;50.746;8.246;2024-03-06T09:01:56;37.27;;;18.57;;
82835;SDS011;72587;50.746;8.246;2024-03-06T09:04:22;27.47;;;12.83;;
82835;SDS011;72587;50.746;8.246;2024-03-06T09:06:48;31.37;;;12.77;;
82835;SDS011;72587;50.746;8.246;2024-03-06T09:09:16;28.53;;;13.30;;
82835;SDS011;72587;50.746;8.246;2024-03-06T09:11:41;32.33;;;13.30;;
82835;SDS011;72587;50.746;8.246;2024-03-06T09:14:07;27.97;;;13.57;;
82835;SDS011;72587;50.746;8.246;2024-03-06T09:16:34;30.40;;;12.57;;
82835;SDS011;72587;50.746;8.246;2024-03-06T09:19:00;25.97;;;12.40;;
82835;SDS011;72587;50.746;8.246;2024-03-06T09:21:25;22.97;;;11.50;;
82835;SDS011;72587;50.746;8.246;2024-03-06T09:23:51;22.93;;;11.60;;
82835;SDS011;72587;50.746;8.246;2024-03-06T09:26:17;39.63;;;16.97;;
82835;SDS011;72587;50.746;8.246;2024-03-06T09:28:42;19.37;;;10.77;;
82835;SDS011;72587;50.746;8.246;2024-03-06T09:31:08;23.77;;;11.13;;
82835;SDS011;72587;50.746;8.246;2024-03-06T09:33:33;25.20;;;12.73;;
82835;SDS011;72587;50.746;8.246;2024-03-06T09:35:59;23.43;;;12.53;;
82835;SDS011;72587;50.746;8.246;2024-03-06T09:38:25;26.27;;;13.53;;
82835;SDS011;72587;50.746;8.246;2024-03-06T09:40:50;27.10;;;12.73;;
82835;SDS011;72587;50.746;8.246;2024-03-06T09:43:17;21.70;;;11.70;;
82835;SDS011;72587;50.746;8.246;2024-03-06T09:45:44;24.70;;;12.70;;
82835;SDS011;72587;50.746;8.246;2024-03-06T09:48:13;21.97;;;11.53;;
82835;SDS011;72587;50.746;8.246;2024-03-06T09:50:38;24.00;;;12.00;;
82835;SDS011;72587;50.746;8.246;2024-03-06T09:53:10;21.53;;;11.67;;
82835;SDS011;72587;50.746;8.246;2024-03-06T09:55:39;21.07;;;11.47;;
82835;SDS011;72587;50.746;8.246;2024-03-06T09:58:06;21.20;;;11.90;;
82835;SDS011;72587;50.746;8.246;2024-03-06T10:00:33;22.23;;;11.70;;
82835;SDS011;72587;50.746;8.246;2024-03-06T10:03:00;20.43;;;10.70;;
82835;SDS011;72587;50.746;8.246;2024-03-06T10:05:30;27.90;;;11.33;;
82835;SDS011;72587;50.746;8.246;2024-03-06T10:07:58;19.23;;;10.43;;
82835;SDS011;72587;50.746;8.246;2024-03-06T10:10:25;17.07;;;8.87;;
82835;SDS011;72587;50.746;8.246;2024-03-06T10:12:51;18.40;;;10.03;;
82835;SDS011;72587;50.746;8.246;2024-03-06T10:15:18;19.87;;;9.07;;
82835;SDS011;72587;50.746;8.246;2024-03-06T10:17:44;24.57;;;10.00;;
82835;SDS011;72587;50.746;8.246;2024-03-06T10:20:20;20.03;;;10.10;;
82835;SDS011;72587;50.746;8.246;2024-03-06T10:22:49;19.00;;;8.90;;
82835;SDS011;72587;50.746;8.246;2024-03-06T10:25:22;15.83;;;8.57;;
82835;SDS011;72587;50.746;8.246;2024-03-06T10:30:33;16.07;;;8.63;;
82835;SDS011;72587;50.746;8.246;2024-03-06T10:33:00;14.77;;;8.63;;
82835;SDS011;72587;50.746;8.246;2024-03-06T10:35:31;18.33;;;8.47;;
82835;SDS011;72587;50.746;8.246;2024-03-06T10:37:57;15.10;;;7.50;;
82835;SDS011;72587;50.746;8.246;2024-03-06T10:40:27;15.47;;;7.70;;
82835;SDS011;72587;50.746;8.246;2024-03-06T10:43:03;12.83;;;6.93;;
82835;SDS011;72587;50.746;8.246;2024-03-06T10:45:36;11.63;;;6.70;;
82835;SDS011;72587;50.746;8.246;2024-03-06T10:48:33;14.70;;;7.93;;
82835;SDS011;72587;50.746;8.246;2024-03-06T10:50:59;11.20;;;6.43;;
82835;SDS011;72587;50.746;8.246;2024-03-06T10:53:28;12.00;;;6.63;;
82835;SDS011;72587;50.746;8.246;2024-03-06T10:55:54;13.33;;;7.00;;
82835;SDS011;72587;50.746;8.246;2024-03-06T10:58:21;11.20;;;6.70;;
82835;SDS011;72587;50.746;8.246;2024-03-06T11:00:48;11.47;;;6.03;;
82835;SDS011;72587;50.746;8.246;2024-03-06T11:03:16;13.47;;;7.40;;
82835;SDS011;72587;50.746;8.246;2024-03-06T11:05:42;10.50;;;6.60;;
82835;SDS011;72587;50.746;8.246;2024-03-06T11:08:11;12.53;;;6.10;;
82835;SDS011;72587;50.746;8.246;2024-03-06T11:10:38;11.10;;;6.77;;
82835;SDS011;72587;50.746;8.246;2024-03-06T11:15:51;12.40;;;6.77;;
82835;SDS011;72587;50.746;8.246;2024-03-06T11:20:58;12.30;;;6.80;;
82835;SDS011;72587;50.746;8.246;2024-03-06T11:23:27;12.40;;;6.63;;
82835;SDS011;72587;50.746;8.246;2024-03-06T11:28:24;10.37;;;6.00;;
82835;SDS011;72587;50.746;8.246;2024-03-06T11:30:58;9.93;;;5.90;;
82835;SDS011;72587;50.746;8.246;2024-03-06T11:36:19;11.13;;;5.90;;
82835;SDS011;72587;50.746;8.246;2024-03-06T11:38:58;10.07;;;5.77;;
82835;SDS011;72587;50.746;8.246;2024-03-06T11:41:46;10.00;;;5.77;;
82835;SDS011;72587;50.746;8.246;2024-03-06T11:44:16;11.87;;;5.50;;
82835;SDS011;72587;50.746;8.246;2024-03-06T11:46:46;10.20;;;6.00;;
82835;SDS011;72587;50.746;8.246;2024-03-06T11:49:22;10.70;;;5.73;;
82835;SDS011;72587;50.746;8.246;2024-03-06T11:51:53;11.63;;;6.10;;
82835;SDS011;72587;50.746;8.246;2024-03-06T11:54:24;10.03;;;5.97;;
82835;SDS011;72587;50.746;8.246;2024-03-06T11:56:52;13.93;;;6.30;;
82835;SDS011;72587;50.746;8.246;2024-03-06T11:59:22;10.40;;;6.30;;
82835;SDS011;72587;50.746;8.246;2024-03-06T12:01:55;11.43;;;6.10;;
82835;SDS011;72587;50.746;8.246;2024-03-06T12:04:22;10.60;;;6.47;;
82835;SDS011;72587;50.746;8.246;2024-03-06T12:06:49;13.07;;;6.10;;
82835;SDS011;72587;50.746;8.246;2024-03-06T12:09:15;11.10;;;6.50;;
82835;SDS011;72587;50.746;8.246;2024-03-06T12:11:41;13.13;;;6.63;;
82835;SDS011;72587;50.746;8.246;2024-03-06T12:14:19;10.67;;;6.27;;
82835;SDS011;72587;50.746;8.246;2024-03-06T12:16:55;10.37;;;6.37;;
82835;SDS011;72587;50.746;8.246;2024-03-06T12:19:23;15.00;;;7.07;;
82835;SDS011;72587;50.746;8.246;2024-03-06T12:21:50;12.47;;;6.80;;
82835;SDS011;72587;50.746;8.246;2024-03-06T12:24:16;14.50;;;7.50;;
82835;SDS011;72587;50.746;8.246;2024-03-06T12:26:43;14.13;;;7.53;;
82835;SDS011;72587;50.746;8.246;2024-03-06T12:29:10;12.70;;;7.57;;
82835;SDS011;72587;50.746;8.246;2024-03-06T12:31:37;15.47;;;6.83;;
82835;SDS011;72587;50.746;8.246;2024-03-06T12:34:04;11.77;;;7.23;;
82835;SDS011;72587;50.746;8.246;2024-03-06T12:36:31;12.20;;;7.33;;
82835;SDS011;72587;50.746;8.246;2024-03-06T12:39:02;10.87;;;6.30;;
82835;SDS011;72587;50.746;8.246;2024-03-06T12:41:28;12.03;;;6.50;;
82835;SDS011;72587;50.746;8.246;2024-03-06T12:43:55;12.87;;;6.80;;
82835;SDS011;72587;50.746;8.246;2024-03-06T12:46:21;14.93;;;6.47;;
82835;SDS011;72587;50.746;8.246;2024-03-06T12:48:51;14.73;;;7.60;;
82835;SDS011;72587;50.746;8.246;2024-03-06T12:51:17;12.33;;;6.57;;
82835;SDS011;72587;50.746;8.246;2024-03-06T12:53:43;14.93;;;6.40;;
82835;SDS011;72587;50.746;8.246;2024-03-06T12:56:08;11.97;;;6.90;;
82835;SDS011;72587;50.746;8.246;2024-03-06T12:58:34;12.07;;;6.40;;
82835;SDS011;72587;50.746;8.246;2024-03-06T13:01:03;13.47;;;6.47;;
82835;SDS011;72587;50.746;8.246;2024-03-06T13:03:29;11.20;;;6.10;;
82835;SDS011;72587;50.746;8.246;2024-03-06T13:05:55;10.23;;;5.80;;
82835;SDS011;72587;50.746;8.246;2024-03-06T13:08:21;11.60;;;5.80;;
82835;SDS011;72587;50.746;8.246;2024-03-06T13:10:47;11.63;;;5.87;;
82835;SDS011;72587;50.746;8.246;2024-03-06T13:13:12;10.70;;;5.90;;
82835;SDS011;72587;50.746;8.246;2024-03-06T13:15:38;13.37;;;6.27;;
82835;SDS011;72587;50.746;8.246;2024-03-06T13:18:04;9.37;;;5.40;;
82835;SDS011;72587;50.746;8.246;2024-03-06T13:20:30;17.67;;;6.77;;
82835;SDS011;72587;50.746;8.246;2024-03-06T13:22:56;10.93;;;5.87;;
82835;SDS011;72587;50.746;8.246;2024-03-06T13:25:21;11.10;;;6.17;;
82835;SDS011;72587;50.746;8.246;2024-03-06T13:27:47;11.93;;;5.90;;
82835;SDS011;72587;50.746;8.246;2024-03-06T13:30:13;11.33;;;6.30;;
82835;SDS011;72587;50.746;8.246;2024-03-06T13:32:39;12.93;;;6.50;;
82835;SDS011;72587;50.746;8.246;2024-03-06T13:35:07;11.97;;;6.40;;
82835;SDS011;72587;50.746;8.246;2024-03-06T13:37:37;13.87;;;6.80;;
82835;SDS011;72587;50.746;8.246;2024-03-06T13:40:03;12.07;;;6.57;;
82835;SDS011;72587;50.746;8.246;2024-03-06T13:42:32;13.87;;;7.00;;
82835;SDS011;72587;50.746;8.246;2024-03-06T13:44:57;11.73;;;6.60;;
82835;SDS011;72587;50.746;8.246;2024-03-06T13:47:23;12.77;;;6.93;;
82835;SDS011;72587;50.746;8.246;2024-03-06T13:49:49;14.87;;;6.47;;
82835;SDS011;72587;50.746;8.246;2024-03-06T13:52:14;10.10;;;5.80;;
82835;SDS011;72587;50.746;8.246;2024-03-06T13:54:44;13.33;;;6.33;;
82835;SDS011;72587;50.746;8.246;2024-03-06T13:57:11;12.13;;;6.70;;
82835;SDS011;72587;50.746;8.246;2024-03-06T13:59:37;12.40;;;6.40;;
82835;SDS011;72587;50.746;8.246;2024-03-06T14:02:02;12.73;;;6.50;;
82835;SDS011;72587;50.746;8.246;2024-03-06T14:04:28;12.60;;;6.63;;
82835;SDS011;72587;50.746;8.246;2024-03-06T14:06:55;13.27;;;6.50;;
82835;SDS011;72587;50.746;8.246;2024-03-06T14:09:22;13.17;;;7.30;;
82835;SDS011;72587;50.746;8.246;2024-03-06T14:11:49;11.73;;;6.77;;
82835;SDS011;72587;50.746;8.246;2024-03-06T14:14:15;13.13;;;7.37;;
82835;SDS011;72587;50.746;8.246;2024-03-06T14:16:41;13.17;;;7.50;;
82835;SDS011;72587;50.746;8.246;2024-03-06T14:19:07;15.13;;;7.23;;
82835;SDS011;72587;50.746;8.246;2024-03-06T14:21:33;14.93;;;6.67;;
82835;SDS011;72587;50.746;8.246;2024-03-06T14:24:00;14.70;;;7.83;;
82835;SDS011;72587;50.746;8.246;2024-03-06T14:26:29;12.17;;;7.00;;
82835;SDS011;72587;50.746;8.246;2024-03-06T14:28:55;13.37;;;6.77;;
82835;SDS011;72587;50.746;8.246;2024-03-06T14:31:20;13.43;;;6.60;;
82835;SDS011;72587;50.746;8.246;2024-03-06T14:33:46;13.33;;;6.60;;
82835;SDS011;72587;50.746;8.246;2024-03-06T14:36:12;11.83;;;6.73;;